Terminal Aerodrome Forecast
Issued by NWS Cleveland, OH

Home | Current Version | Previous Version | Graphics & Text | Print | Product List | Glossary On
Versions: 1 2 3 4 5 6 7 8 9 10 11 12 13 14 15 16 17 18 19 20 21 22 23 24 25 26
881
FTUS41 KCLE 211140
TAFCLE
TAF
KCLE 211140Z 2112/2218 05006KT P6SM VCSH OVC060
      TEMPO 2112/2116 -SHRA BKN025
     FM211600 02010KT P6SM -SHRA OVC020
     FM212000 01006KT P6SM SCT030 OVC080
     FM220200 VRB03KT P6SM BKN150
     FM221500 34010KT P6SM BKN080=

USA.gov is the U.S. government's official web portal to all federal, state and local government web resources and services.